Kamikawa Maru — JG5687 — position and weather

sailwx.info

Track history (hours):
 
Tides and Currents Weather Stations Pressure Air Temp Water Temp Dewpoint Dewpoint Depression Visibility Wind Speed Wind Dir Waves Ship Positions

Kamikawa Maru

Last reported at 2014-Nov-25 11:33 UTC. Time now 2014-Nov-26 17:25 UTC.
Position N 35°08' E 139°45'.

Length 162 m; draft 6.8 m.

Type: Cargo ship. MMSI: 431101012.

Date/timePositionNaut miles runAvg speedWind from/ knotsBaromVisibWave heightAir tempDewpointWater temp
2014-Nov-25 11:33N 35°08' E 139°45'1414.1
2014-Nov-25 10:33N 35°22' E 139°42'1414.1
2014-Nov-25 09:33N 35°36' E 139°47'2 0.2
2014-Nov-24 23:32N 35°38' E 139°46'1111.5
2014-Nov-24 22:33N 35°27' E 139°49'1110.9
2014-Nov-24 21:33N 35°16' E 139°46'16 0.4
2014-Nov-23 08:29N 35°02' E 139°37'1516.4
2014-Nov-23 07:33N 35°16' E 139°46'1313.0
2014-Nov-23 06:33N 35°28' E 139°49'10 1.4
2014-Nov-22 23:32N 35°38' E 139°46'1212.5
2014-Nov-22 22:33N 35°26' E 139°49'1110.7
2014-Nov-22 21:33N 35°16' E 139°47'1715.2
2014-Nov-22 20:28N 34°59' E 139°43'  
2014-Nov-18 12:04N 35°03' E 139°44'1018.7
2014-Nov-18 11:33N 35°13' E 139°46'1413.5
2014-Nov-18 10:33N 35°26' E 139°46'11 1.0
2014-Nov-17 23:33N 35°38' E 139°46'1313.5
2014-Nov-17 22:33N 35°24' E 139°46'10 9.9
2014-Nov-17 21:34N 35°14' E 139°47'11 0.3
2014-Nov-16 07:33N 35°05' E 139°40'1413.9
2014-Nov-16 06:32N 35°18' E 139°44'1515.3
2014-Nov-16 05:34N 35°32' E 139°51'7 1.2
2014-Nov-15 23:33N 35°38' E 139°46'1211.6
2014-Nov-15 22:34N 35°27' E 139°49'1111.3
2014-Nov-15 21:33N 35°16' E 139°46'1614.2
2014-Nov-15 20:27N 35°00' E 139°42'  
Track history (hours):
 
Tides and Currents Weather Stations Pressure Air Temp Water Temp Dewpoint Dewpoint Depression Visibility Wind Speed Wind Dir Waves Ship Positions

Kamikawa Maru

Last reported at 2014-Nov-25 11:33 UTC. Time now 2014-Nov-26 17:25 UTC.
Position N 35°08' E 139°45'.

Length 162 m; draft 6.8 m.

Type: Cargo ship. MMSI: 431101012.

Date/timePositionNaut miles runAvg speedWind from/ knotsBaromVisibWave heightAir tempDewpointWater temp
2014-Nov-25 11:33N 35°08' E 139°45'1414.1
2014-Nov-25 10:33N 35°22' E 139°42'1414.1
2014-Nov-25 09:33N 35°36' E 139°47'2 0.2
2014-Nov-24 23:32N 35°38' E 139°46'1111.5
2014-Nov-24 22:33N 35°27' E 139°49'1110.9
2014-Nov-24 21:33N 35°16' E 139°46'16 0.4
2014-Nov-23 08:29N 35°02' E 139°37'1516.4
2014-Nov-23 07:33N 35°16' E 139°46'1313.0
2014-Nov-23 06:33N 35°28' E 139°49'10 1.4
2014-Nov-22 23:32N 35°38' E 139°46'1212.5
2014-Nov-22 22:33N 35°26' E 139°49'1110.7
2014-Nov-22 21:33N 35°16' E 139°47'1715.2
2014-Nov-22 20:28N 34°59' E 139°43'  
2014-Nov-18 12:04N 35°03' E 139°44'1018.7
2014-Nov-18 11:33N 35°13' E 139°46'1413.5
2014-Nov-18 10:33N 35°26' E 139°46'11 1.0
2014-Nov-17 23:33N 35°38' E 139°46'1313.5
2014-Nov-17 22:33N 35°24' E 139°46'10 9.9
2014-Nov-17 21:34N 35°14' E 139°47'11 0.3
2014-Nov-16 07:33N 35°05' E 139°40'1413.9
2014-Nov-16 06:32N 35°18' E 139°44'1515.3
2014-Nov-16 05:34N 35°32' E 139°51'7 1.2
2014-Nov-15 23:33N 35°38' E 139°46'1211.6
2014-Nov-15 22:34N 35°27' E 139°49'1111.3
2014-Nov-15 21:33N 35°16' E 139°46'1614.2
2014-Nov-15 20:27N 35°00' E 139°42'  

Dump ship's entire track history